Estación Meteorológica Peña el Pijo (Robertgarden) [ 05/26/19 18:45:27 CEST ]

Fecha Hora Presion(HPa) Temp (°C) Humedad % Rocio (°C) Viento ( m/s) Direccion Lluvia 1Hora(mm) Lluvia 24H(mm) LLuvia Total(mm)
2019-Jan-21 01:01:36 1005.300 2.4 72 -2.1       2.59 163.68
2019-Jan-21 02:03:09 1005.200 1.3 75 -2.7       2.59 163.68
2019-Jan-21 03:01:39 1005.300 -0.2 78 -3.6       2.59 163.68
2019-Jan-21 04:01:43 1005.200 -0.7 81 -3.5       2.59 163.68
2019-Jan-21 05:01:28 1005.300 -1.5 82 -4.2       2.59 163.68
2019-Jan-21 06:01:42 1005.000 -1.5 83 -4.0       2.07 163.68
2019-Jan-21 07:01:45 1005.000 -0.2 84 -2.6       1.03 163.68
2019-Jan-21 08:01:29 1005.500 0.8 82 -2.0       0.51 163.68
2019-Jan-21 09:01:52 1006.100 -0.4 81 -3.2       0.51 163.68
2019-Jan-21 10:01:57 1006.200 1.4 83 -1.2         163.68
2019-Jan-21 11:01:32 1006.500 2.4 81 -0.5         163.68
2019-Jan-21 12:01:37 1006.500 5.6 68 0.2         163.68
2019-Jan-21 13:01:39 1006.200 6.6 62 -0.2         163.68
2019-Jan-21 14:01:23 1005.900 7.7 54 -1.1         163.68
2019-Jan-21 15:02:01 1005.900 6.7 54 -2.0         163.68
2019-Jan-21 16:01:48 1006.100 6.6 54 -2.1         163.68
2019-Jan-21 17:01:55 1006.000 5.6 57 -2.3         163.68
2019-Jan-21 18:01:33 1006.500 3.9 60 -3.2         163.68
2019-Jan-21 19:01:42 1006.800 3.1 64 -3.1         163.68
2019-Jan-21 20:02:00 1007.200 1.5 68 -3.8         163.68
2019-Jan-21 21:01:54 1007.300 1.8 68 -3.5         163.68
2019-Jan-21 22:01:57 1007.400 -0.4 72 -4.8         163.68
2019-Jan-21 23:01:48 1007.300 -1.4 75 -5.3         163.68

Temperatura Máxima:    Temperatura Mínima:-1°
Presión Máxima:1007.400 Hpa    Presión Mínima:1005.000 Hpa


Volver